Maverick — WDE6757 — position and weather

sailwx.info

Track history (hours):
 
Tides and Currents Weather Stations Pressure Air Temp Water Temp Dewpoint Dewpoint Depression Visibility Wind Speed Wind Dir Waves Ship Positions

Maverick

Owner: Maverick, warrenton, OR. More information available from US FCC via Universal Licensing System and Coast Guard Vessel Documentation Center.

Last reported at 2018-May-07 23:58 UTC. Time now 2018-Jul-17 18:43 UTC.
Position N 48°44' W 126°14'.
Warning: this ship's position is months out of date.

Length 25 m; draft 2.3 m.

Type: Fishing. MMSI: 367384460.

Date/timePositionNaut miles runAvg speedWind from/ knotsBaromVisibWave heightAir tempDewpointWater temp
2018-May-07 23:58N 48°44' W 126°14'4 8.2
2018-May-07 23:29N 48°41' W 126°09'5 8.2
2018-May-07 22:56N 48°38' W 126°04'112 8.2
2018-May-07 09:13N 47°04' W 124°32'2 7.7
2018-May-07 08:59N 47°03' W 124°31'4 7.8
2018-May-07 08:30N 46°59' W 124°29'4 7.5
2018-May-07 08:00N 46°56' W 124°26'4 7.5
2018-May-07 07:30N 46°52' W 124°24'4 7.6
2018-May-07 06:57N 46°48' W 124°22'8 7.7
2018-May-07 05:53N 46°41' W 124°17'3 7.6
2018-May-07 05:30N 46°38' W 124°16'4 8.0
2018-May-07 04:58N 46°34' W 124°14'4 8.1
2018-May-07 04:31N 46°30' W 124°13'4 8.2
2018-May-07 04:00N 46°26' W 124°12'4 8.4
2018-May-07 03:30N 46°22' W 124°11'4 8.2
2018-May-07 03:00N 46°18' W 124°10'4 7.9
2018-May-07 02:31N 46°15' W 124°06'4 7.8
2018-May-07 02:01N 46°15' W 124°00'4 8.4
2018-May-07 01:30N 46°12' W 123°55'2 2.9
2018-May-07 00:55N 46°10' W 123°55'0 0.0
2018-May-07 00:28N 46°10' W 123°55'0 0.0
2018-May-06 23:58N 46°10' W 123°55'0 0.0
2018-May-06 23:28N 46°10' W 123°55'0 0.0
2018-May-06 22:37N 46°10' W 123°55'0 0.0
2018-May-06 22:28N 46°10' W 123°55'0 0.0
2018-May-06 21:57N 46°10' W 123°55'0 0.0
2018-May-06 21:30N 46°10' W 123°55'0 0.0
2018-May-06 20:59N 46°10' W 123°55'0 0.0
2018-May-06 20:30N 46°10' W 123°55'0 0.0
2018-May-06 19:59N 46°10' W 123°55'0 0.0
2018-May-06 19:29N 46°10' W 123°55'0 0.0
2018-May-06 18:52N 46°10' W 123°55'0 0.0
2018-May-06 18:25N 46°10' W 123°55'0 0.0
2018-May-06 17:55N 46°10' W 123°55'0 0.0
2018-May-06 17:28N 46°10' W 123°55'0 0.0
2018-May-06 17:00N 46°10' W 123°55'0 0.0
2018-May-06 16:27N 46°10' W 123°55'0 0.0
2018-May-06 15:57N 46°10' W 123°55'0 0.0
2018-May-06 15:30N 46°10' W 123°55'0 0.0
2018-May-06 14:59N 46°10' W 123°55'0 0.0
2018-May-06 14:17N 46°10' W 123°55'0 0.0
2018-May-06 13:59N 46°10' W 123°55'0 0.0
2018-May-06 13:23N 46°10' W 123°55'0 0.0
2018-May-06 12:59N 46°10' W 123°55'0 0.0
2018-May-06 12:29N 46°10' W 123°55'0 0.0
2018-May-06 11:59N 46°10' W 123°55'0 0.0
2018-May-06 11:29N 46°10' W 123°55'0 0.0
2018-May-06 10:59N 46°10' W 123°55'0 0.0
2018-May-06 10:30N 46°10' W 123°55'0 0.0
2018-May-06 09:57N 46°10' W 123°55'0 0.0
2018-May-06 09:30N 46°10' W 123°55'0 0.0
2018-May-06 08:57N 46°10' W 123°55'0 0.0
2018-May-06 08:30N 46°10' W 123°55'0 0.0
2018-May-06 07:57N 46°10' W 123°55'0 0.0
2018-May-06 07:24N 46°10' W 123°55'0 0.0
2018-May-06 07:00N 46°10' W 123°55'0 0.0
2018-May-06 06:30N 46°10' W 123°55'0 0.0
2018-May-06 05:59N 46°10' W 123°55'0 0.0
2018-May-06 05:29N 46°10' W 123°55'0 0.0
2018-May-06 04:59N 46°10' W 123°55'0 0.0
2018-May-06 04:27N 46°10' W 123°55'0 0.0
2018-May-06 03:59N 46°10' W 123°55'0 0.0
2018-May-06 03:30N 46°10' W 123°55'0 0.0
2018-May-06 02:57N 46°10' W 123°55'0 0.0
2018-May-06 02:29N 46°10' W 123°55'0 0.0
2018-May-06 01:59N 46°10' W 123°55'0 0.0
2018-May-06 01:20N 46°10' W 123°55'0 0.0
2018-May-06 00:59N 46°10' W 123°55'0 0.0
2018-May-06 00:28N 46°10' W 123°55'0 0.0
2018-May-05 23:58N 46°10' W 123°55'0 0.0
2018-May-05 23:29N 46°10' W 123°55'0 0.0
2018-May-05 22:59N 46°10' W 123°55'0 0.0
2018-May-05 22:29N 46°10' W 123°55'0 0.0
2018-May-05 21:52N 46°10' W 123°55'0 0.0
2018-May-05 21:28N 46°10' W 123°55'0 0.0
2018-May-05 20:58N 46°10' W 123°55'0 0.0
2018-May-05 20:30N 46°10' W 123°55'0 0.0
2018-May-05 19:58N 46°10' W 123°55'0 0.0
2018-May-05 19:28N 46°10' W 123°55'0 0.0
2018-May-05 18:58N 46°10' W 123°55'0 0.0
2018-May-05 18:28N 46°10' W 123°55'0 0.0
2018-May-05 17:58N 46°10' W 123°55'0 0.0
2018-May-05 17:28N 46°10' W 123°55'0 0.0
2018-May-05 16:55N 46°10' W 123°55'0 0.0
2018-May-05 16:29N 46°10' W 123°55'0 0.0
2018-May-05 15:57N 46°10' W 123°55'0 0.0
2018-May-05 15:15N 46°10' W 123°55'0 0.0
2018-May-05 14:57N 46°10' W 123°55'0 0.0
2018-May-05 14:30N 46°10' W 123°55'0 0.0
2018-May-05 14:00N 46°10' W 123°55'0 0.0
2018-May-05 13:30N 46°10' W 123°55'0 0.0
2018-May-05 12:57N 46°10' W 123°55'0 0.0
2018-May-05 12:28N 46°10' W 123°55'0 0.0
2018-May-05 11:58N 46°10' W 123°55'0 0.0
2018-May-05 11:30N 46°10' W 123°55'0 0.0
2018-May-05 11:00N 46°10' W 123°55'0 0.0
2018-May-05 10:24N 46°10' W 123°55'0 0.0
2018-May-05 09:42N 46°10' W 123°55'0 0.0
2018-May-05 09:30N 46°10' W 123°55'0 0.0
2018-May-05 09:00N 46°10' W 123°55'0 0.0
2018-May-05 08:30N 46°10' W 123°55'0 0.0
2018-May-05 08:00N 46°10' W 123°55'0 0.0
2018-May-05 07:27N 46°10' W 123°55'0 0.0
2018-May-05 07:00N 46°10' W 123°55'0 0.0
2018-May-05 06:27N 46°10' W 123°55'0 0.0
2018-May-05 05:58N 46°10' W 123°55'0 0.0
2018-May-05 05:19N 46°10' W 123°55'0 0.0
2018-May-05 04:55N 46°10' W 123°55'0 0.0
2018-May-05 04:28N 46°10' W 123°55'0 0.0
2018-May-05 03:58N 46°10' W 123°55'0 0.0
2018-May-05 03:23N 46°10' W 123°55'0 0.0
2018-May-05 02:56N 46°10' W 123°55'0 0.0
2018-May-05 02:12N 46°10' W 123°55'0 0.1
2018-May-05 01:18N 46°10' W 123°55'0 0.0
2018-May-05 00:47N 46°10' W 123°55'0 0.0
2018-May-05 00:24N 46°10' W 123°55'0 0.0
2018-May-05 00:00N 46°10' W 123°55'0 0.0
2018-May-04 23:28N 46°10' W 123°55'0 0.0
2018-May-04 22:58N 46°10' W 123°55'0 0.0
2018-May-04 22:28N 46°10' W 123°55'0 0.0
2018-May-04 21:58N 46°10' W 123°55'0 0.0
2018-May-04 21:28N 46°10' W 123°55'0 0.0
2018-May-04 20:58N 46°10' W 123°55'0 0.0
2018-May-04 20:29N 46°10' W 123°55'0 0.0
2018-May-04 19:50N 46°10' W 123°55'0 0.0
2018-May-04 19:30N 46°10' W 123°55'0 0.0
2018-May-04 19:00N 46°10' W 123°55'0 0.0
2018-May-04 18:30N 46°10' W 123°55'0 0.0
2018-May-04 17:43N 46°10' W 123°55'0 0.0
2018-May-04 17:28N 46°10' W 123°55'0 0.2
2018-May-04 17:00N 46°10' W 123°55'0 0.0
2018-May-04 16:30N 46°10' W 123°55'0 0.0
2018-May-04 16:00N 46°10' W 123°55'0 0.0
2018-May-04 15:28N 46°10' W 123°55'0 0.0
2018-May-04 14:58N 46°10' W 123°55'0 0.0
2018-May-04 14:29N 46°10' W 123°55'0 0.0
2018-May-04 14:00N 46°10' W 123°55'0 0.0
2018-May-04 13:30N 46°10' W 123°55'0 0.0
2018-May-04 12:59N 46°10' W 123°55'0 0.0
2018-May-04 12:25N 46°10' W 123°55'0 0.0
2018-May-04 12:00N 46°10' W 123°55'0 0.0
2018-May-04 11:30N 46°10' W 123°55'0 0.0
2018-May-04 10:59N 46°10' W 123°55'0 0.0
2018-May-04 10:23N 46°10' W 123°55'0 0.0
2018-May-04 09:58N 46°10' W 123°55'0 0.0
2018-May-04 09:28N 46°10' W 123°55'0 0.0
2018-May-04 08:58N 46°10' W 123°55'0 0.0
2018-May-04 08:28N 46°10' W 123°55'0 0.0
2018-May-04 07:58N 46°10' W 123°55'0 0.0
2018-May-04 07:28N 46°10' W 123°55'0 0.0
2018-May-04 06:58N 46°10' W 123°55'0 0.0
2018-May-04 06:25N 46°10' W 123°55'0 0.0
2018-May-04 06:00N 46°10' W 123°55'0 0.0
2018-May-04 05:28N 46°10' W 123°55'0 0.0
2018-May-04 05:00N 46°10' W 123°55'0 0.0
2018-May-04 04:30N 46°10' W 123°55'0 0.0
2018-May-04 04:00N 46°10' W 123°55'0 0.0
2018-May-04 03:25N 46°10' W 123°55'0 0.0
2018-May-04 02:55N 46°10' W 123°55'0 0.0
2018-May-04 02:29N 46°10' W 123°55'0 0.0
2018-May-04 01:41N 46°10' W 123°55'0 0.0
2018-May-04 01:29N 46°10' W 123°55'0 0.0
2018-May-04 00:44N 46°10' W 123°55'0 0.0
2018-May-04 00:28N 46°10' W 123°55'0 0.0
2018-May-03 23:55N 46°10' W 123°55'0 0.0
2018-May-03 23:28N 46°10' W 123°55'0 0.0
2018-May-03 22:58N 46°10' W 123°55'0 0.0
2018-May-03 22:30N 46°10' W 123°55'0 0.0
2018-May-03 21:58N 46°10' W 123°55'0 0.0
2018-May-03 21:26N 46°10' W 123°55'0 0.0
2018-May-03 21:00N 46°10' W 123°55'0 0.0
2018-May-03 20:30N 46°10' W 123°55'0 0.0
2018-May-03 19:59N 46°10' W 123°55'0 0.0
2018-May-03 19:29N 46°10' W 123°55'0 0.0
2018-May-03 18:59N 46°10' W 123°55'0 0.0
2018-May-03 18:28N 46°10' W 123°55'0 0.0
2018-May-03 17:59N 46°10' W 123°55'0 0.0
2018-May-03 17:29N 46°10' W 123°55'0 0.0
2018-May-03 16:59N 46°10' W 123°55'0 0.0
2018-May-03 16:30N 46°10' W 123°55'0 0.0
2018-May-03 15:59N 46°10' W 123°55'0 0.0
2018-May-03 15:28N 46°10' W 123°55'0 0.0
2018-May-03 14:58N 46°10' W 123°55'0 0.0
2018-May-03 14:29N 46°10' W 123°55'0 0.0
2018-May-03 14:00N 46°10' W 123°55'0 0.0
2018-May-03 13:28N 46°10' W 123°55'0 0.0
2018-May-03 12:59N 46°10' W 123°55'0 0.0
2018-May-03 11:45N 46°10' W 123°55'0 0.0
2018-May-03 11:30N 46°10' W 123°55'0 0.0
2018-May-03 10:58N 46°10' W 123°55'0 0.0
2018-May-03 10:26N 46°10' W 123°55'0 0.0
2018-May-03 09:57N 46°10' W 123°55'0 0.0
2018-May-03 09:30N 46°10' W 123°55'0 0.0
2018-May-03 08:44N 46°10' W 123°55'0 0.0
2018-May-03 08:17N 46°10' W 123°55'0 0.0
2018-May-03 07:50N 46°10' W 123°55'0 0.0
2018-May-03 07:26N 46°10' W 123°55'0 0.0
2018-May-03 06:59N 46°10' W 123°55'0 0.0
2018-May-03 06:09N 46°10' W 123°55'0 0.0
2018-May-03 06:00N 46°10' W 123°55'0 0.0
2018-May-03 05:30N 46°10' W 123°55'0 0.0
2018-May-03 04:56N 46°10' W 123°55'0 0.0
2018-May-03 04:29N 46°10' W 123°55'0 0.0
2018-May-03 03:59N 46°10' W 123°55'0 0.0
2018-May-03 03:29N 46°10' W 123°55'0 0.0
2018-May-03 02:59N 46°10' W 123°55'0 0.0
2018-May-03 02:21N 46°10' W 123°55'0 0.0
2018-May-03 02:00N 46°10' W 123°55'0 0.0
2018-May-03 01:30N 46°10' W 123°55'0 0.0
2018-May-03 00:58N 46°10' W 123°55'0 0.0
2018-May-03 00:25N 46°10' W 123°55'0 0.0
2018-May-02 23:58N 46°10' W 123°55'0 0.1
2018-May-02 23:30N 46°10' W 123°55'0 0.0
2018-May-02 22:57N 46°10' W 123°55'0 0.0
2018-May-02 22:18N 46°10' W 123°55'0 0.0
2018-May-02 21:57N 46°10' W 123°55'0 0.0
2018-May-02 21:30N 46°10' W 123°55'0 0.0
2018-May-02 20:51N 46°10' W 123°55'0 0.0
2018-May-02 20:30N 46°10' W 123°55'0 0.0
2018-May-02 20:00N 46°10' W 123°55'0 0.0
2018-May-02 19:17N 46°10' W 123°55'0 0.0
2018-May-02 18:59N 46°10' W 123°55'0 0.0
2018-May-02 18:29N 46°10' W 123°55'0 0.0
2018-May-02 17:56N 46°10' W 123°55'0 0.0
2018-May-02 17:02N 46°10' W 123°55'0 0.0
2018-May-02 16:59N 46°10' W 123°55'0 0.0
2018-May-02 16:30N 46°10' W 123°55'0 0.0
2018-May-02 16:00N 46°10' W 123°55'0 0.0
2018-May-02 15:27N 46°10' W 123°55'0 0.0
2018-May-02 15:00N 46°10' W 123°55'0 0.0
2018-May-02 14:30N 46°10' W 123°55'0 0.0
2018-May-02 13:23N 46°10' W 123°55'0 0.0
2018-May-02 12:57N 46°10' W 123°55'0 0.0
2018-May-02 12:28N 46°10' W 123°55'0 0.0
2018-May-02 11:58N 46°10' W 123°55'0 0.0
2018-May-02 11:26N 46°10' W 123°55'0 0.0
2018-May-02 10:59N 46°10' W 123°55'0 0.0
2018-May-02 10:23N 46°10' W 123°55'0 0.0
2018-May-02 09:59N 46°10' W 123°55'0 0.0
2018-May-02 09:28N 46°10' W 123°55'0 0.0
2018-May-02 08:56N 46°10' W 123°55'0 0.0
2018-May-02 08:28N 46°10' W 123°55'0 0.0
2018-May-02 08:00N 46°10' W 123°55'0 0.0
2018-May-02 07:30N 46°10' W 123°55'0 0.0
2018-May-02 06:55N 46°10' W 123°55'0 0.0
2018-May-02 06:13N 46°10' W 123°55'0 0.0
2018-May-02 05:55N 46°10' W 123°55'0 0.0
2018-May-02 05:22N 46°10' W 123°55'0 0.0
2018-May-02 04:58N 46°10' W 123°55'0 0.0
2018-May-02 04:28N 46°10' W 123°55'0 0.0
2018-May-02 03:58N 46°10' W 123°55'0 0.0
2018-May-02 03:13N 46°10' W 123°55'0 0.0
2018-May-02 02:58N 46°10' W 123°55'0 0.0
2018-May-02 02:30N 46°10' W 123°55'0 0.0
2018-May-02 01:58N 46°10' W 123°55'0 0.0
2018-May-02 01:15N 46°10' W 123°55'0 0.0
2018-May-02 01:00N 46°10' W 123°55'0 0.0
2018-May-02 00:27N 46°10' W 123°55'0 0.0
2018-May-02 00:00N 46°10' W 123°55'0 0.8
2018-May-01 23:30N 46°10' W 123°55'3 5.3
2018-May-01 22:53N 46°12' W 123°50'0 0.0
2018-May-01 22:13N 46°12' W 123°50'1 5.4
2018-May-01 22:00N 46°11' W 123°52'2 4.8
2018-May-01 21:30N 46°09' W 123°52'0 0.8
2018-May-01 21:00N 46°09' W 123°52'0 0.0
2018-May-01 20:27N 46°09' W 123°52'0 0.0
2018-May-01 19:57N 46°09' W 123°52'0 0.0
2018-May-01 19:30N 46°09' W 123°52'0 0.0
2018-May-01 18:56N 46°09' W 123°52'0 0.0
2018-May-01 17:50N 46°09' W 123°52'0 0.0
2018-May-01 17:19N 46°09' W 123°52'0 0.0
2018-May-01 16:53N 46°09' W 123°52'0 0.0
2018-May-01 16:12N 46°09' W 123°52'0 0.0
2018-May-01 16:00N 46°09' W 123°52'0 0.0
2018-May-01 15:29N 46°09' W 123°52'0 0.0
2018-May-01 14:47N 46°09' W 123°52'0 0.0
2018-May-01 14:24N 46°09' W 123°52'0 0.0
2018-May-01 14:00N 46°09' W 123°52'0 0.0
2018-May-01 13:14N 46°09' W 123°52'0 0.0
2018-May-01 13:00N 46°09' W 123°52'0 0.0
2018-May-01 12:30N 46°09' W 123°52'0 0.0
2018-May-01 12:00N 46°09' W 123°52'0 0.0
2018-May-01 11:30N 46°09' W 123°52'0 0.0
2018-May-01 11:00N 46°09' W 123°52'0 0.0
2018-May-01 10:24N 46°09' W 123°52'0 0.0
2018-May-01 09:53N 46°09' W 123°52'0 0.0
2018-May-01 09:30N 46°09' W 123°52'0 0.0
2018-May-01 08:59N 46°09' W 123°52'0 0.0
2018-May-01 08:29N 46°09' W 123°52'0 0.0
2018-May-01 07:59N 46°09' W 123°52'0 0.0
2018-May-01 07:13N 46°09' W 123°52'0 0.0
2018-May-01 06:53N 46°09' W 123°52'0 0.0
2018-May-01 06:29N 46°09' W 123°52'0 0.0
2018-May-01 05:59N 46°09' W 123°52'0 0.0
2018-May-01 05:29N 46°09' W 123°52'0 0.0
2018-May-01 04:44N 46°09' W 123°52'0 0.0
2018-May-01 04:29N 46°09' W 123°52'0 0.0
2018-May-01 03:57N 46°09' W 123°52'0 0.0
2018-May-01 03:30N 46°09' W 123°52'0 0.0
2018-May-01 03:00N 46°09' W 123°52'0 0.0
2018-May-01 02:30N 46°09' W 123°52'0 0.0
2018-May-01 02:00N 46°09' W 123°52'0 0.0
2018-May-01 01:30N 46°09' W 123°52'0 0.0
2018-May-01 01:00N 46°09' W 123°52'0 0.0
2018-May-01 00:24N 46°09' W 123°52'0 0.0
2018-Apr-30 23:52N 46°09' W 123°52'0 0.0
2018-Apr-30 23:23N 46°09' W 123°52'0 0.0
2018-Apr-30 22:59N 46°09' W 123°52'0 0.0
2018-Apr-30 22:29N 46°09' W 123°52'0 0.0
2018-Apr-30 21:59N 46°09' W 123°52'0 0.0
2018-Apr-30 21:30N 46°09' W 123°52'0 0.1
2018-Apr-30 20:45N 46°09' W 123°52'0 0.0
2018-Apr-30 20:23N 46°09' W 123°52'0 0.0
2018-Apr-30 19:56N 46°09' W 123°52'0 0.0
2018-Apr-30 19:29N 46°09' W 123°52'0 0.1
2018-Apr-30 18:59N 46°09' W 123°52'0 0.0
2018-Apr-30 18:26N 46°09' W 123°52'0 0.0
2018-Apr-30 17:59N 46°09' W 123°52'0 0.0
2018-Apr-30 17:29N 46°09' W 123°52'0 0.0
2018-Apr-30 16:27N 46°09' W 123°52'0 0.0
2018-Apr-30 16:00N 46°09' W 123°52'0 0.0
2018-Apr-30 14:49N 46°09' W 123°52'0 0.0
2018-Apr-30 14:30N 46°09' W 123°52'0 0.0
2018-Apr-30 13:57N 46°09' W 123°52'0 0.0
2018-Apr-30 13:30N 46°09' W 123°52'0 0.0
2018-Apr-30 13:00N 46°09' W 123°52'0 0.0
2018-Apr-30 12:30N 46°09' W 123°52'0 0.0
2018-Apr-30 11:54N 46°09' W 123°52'0 0.0
2018-Apr-30 11:28N 46°09' W 123°52'0 0.0
2018-Apr-30 10:55N 46°09' W 123°52'0 0.0
2018-Apr-30 10:22N 46°09' W 123°52'0 0.0
2018-Apr-30 09:58N 46°09' W 123°52'0 0.0
2018-Apr-30 09:28N 46°09' W 123°52'0 0.0
2018-Apr-30 08:54N 46°09' W 123°52'0 0.0
2018-Apr-30 08:30N 46°09' W 123°52'0 0.0
2018-Apr-30 08:00N 46°09' W 123°52'0 0.0
2018-Apr-30 07:30N 46°09' W 123°52'0 0.0
2018-Apr-30 06:51N 46°09' W 123°52'0 0.0
2018-Apr-30 06:28N 46°09' W 123°52'0 0.0
2018-Apr-30 05:58N 46°09' W 123°52'0 0.0
2018-Apr-30 05:28N 46°09' W 123°52'0 0.0
2018-Apr-30 04:58N 46°09' W 123°52'0 0.0
2018-Apr-30 04:25N 46°09' W 123°52'0 0.0
2018-Apr-30 03:58N 46°09' W 123°52'0 0.0
2018-Apr-30 03:28N 46°09' W 123°52'0 0.0
2018-Apr-30 02:57N 46°09' W 123°52'0 0.0
2018-Apr-30 02:29N 46°09' W 123°52'0 0.0
2018-Apr-30 01:59N 46°09' W 123°52'0 0.0
2018-Apr-30 01:20N 46°09' W 123°52'0 0.0
2018-Apr-30 00:58N 46°09' W 123°52'0 0.0
2018-Apr-30 00:30N 46°09' W 123°52'0 0.0
2018-Apr-30 00:00N 46°09' W 123°52'0 0.0
2018-Apr-29 23:30N 46°09' W 123°52'0 0.0
2018-Apr-29 22:55N 46°09' W 123°52'0 0.0
2018-Apr-29 22:28N 46°09' W 123°52'0 0.0
2018-Apr-29 21:59N 46°09' W 123°52'0 0.0
2018-Apr-29 21:28N 46°09' W 123°52'0 0.0
2018-Apr-29 21:00N 46°09' W 123°52'0 0.0
2018-Apr-29 20:14N 46°09' W 123°52'0 0.0
2018-Apr-29 19:59N 46°09' W 123°52'0 0.0
2018-Apr-29 19:26N 46°09' W 123°52'0 0.0
2018-Apr-29 18:44N 46°09' W 123°52'0 0.0
2018-Apr-29 18:29N 46°09' W 123°52'0 0.0
2018-Apr-29 17:59N 46°09' W 123°52'0 0.0
2018-Apr-29 17:29N 46°09' W 123°52'0 0.0
2018-Apr-29 16:59N 46°09' W 123°52'0 0.0
2018-Apr-29 16:29N 46°09' W 123°52'0 0.0
2018-Apr-29 16:00N 46°09' W 123°52'0 0.0
2018-Apr-29 15:30N 46°09' W 123°52'0 0.0
2018-Apr-29 14:56N 46°09' W 123°52'0 0.0
2018-Apr-29 14:29N 46°09' W 123°52'0 0.0
2018-Apr-29 13:43N 46°09' W 123°52'0 0.0
2018-Apr-29 13:25N 46°09' W 123°52'0 0.0
2018-Apr-29 13:00N 46°09' W 123°52'0 0.0
2018-Apr-29 12:24N 46°09' W 123°52'0 0.0
2018-Apr-29 12:00N 46°09' W 123°52'0 0.0
2018-Apr-29 11:25N 46°09' W 123°52'0 0.0
2018-Apr-29 10:58N 46°09' W 123°52'0 0.0
2018-Apr-29 10:18N 46°09' W 123°52'0 0.0
2018-Apr-29 09:55N 46°09' W 123°52'0 0.0
2018-Apr-29 09:28N 46°09' W 123°52'0 0.0
2018-Apr-29 08:55N 46°09' W 123°52'0 0.0
2018-Apr-29 08:26N 46°09' W 123°52'0 0.0
2018-Apr-29 07:59N 46°09' W 123°52'0 0.0
2018-Apr-29 07:29N 46°09' W 123°52'0 0.0
2018-Apr-29 07:00N 46°09' W 123°52'0 0.0
2018-Apr-29 06:30N 46°09' W 123°52'0 0.0
2018-Apr-29 06:00N 46°09' W 123°52'0 0.0
2018-Apr-29 05:29N 46°09' W 123°52'0 0.0
2018-Apr-29 04:59N 46°09' W 123°52'0 0.0
2018-Apr-29 04:16N 46°09' W 123°52'0 0.0
2018-Apr-29 04:00N 46°09' W 123°52'0 0.0
2018-Apr-29 03:30N 46°09' W 123°52'0 0.0
2018-Apr-29 02:53N 46°09' W 123°52'0 0.0
2018-Apr-29 02:29N 46°09' W 123°52'0 0.0
2018-Apr-29 01:53N 46°09' W 123°52'0 0.0
2018-Apr-29 01:29N 46°09' W 123°52'0 0.0
2018-Apr-29 00:59N 46°09' W 123°52'0 0.0
2018-Apr-29 00:30N 46°09' W 123°52'0 0.0
2018-Apr-28 23:34N 46°09' W 123°52'0 0.0
2018-Apr-28 23:24N 46°09' W 123°52'0 0.0
2018-Apr-28 22:55N 46°09' W 123°52'0 0.0
2018-Apr-28 22:30N 46°09' W 123°52'0 0.0
2018-Apr-28 22:00N 46°09' W 123°52'0 0.0
2018-Apr-28 21:28N 46°09' W 123°52'0 0.0
2018-Apr-28 20:58N 46°09' W 123°52'0 0.0
2018-Apr-28 20:29N 46°09' W 123°52'0 0.0
2018-Apr-28 19:59N 46°09' W 123°52'0 0.0
2018-Apr-28 19:29N 46°09' W 123°52'0 0.0
2018-Apr-28 18:53N 46°09' W 123°52'0 0.0
2018-Apr-28 18:20N 46°09' W 123°52'0 0.0
2018-Apr-28 17:56N 46°09' W 123°52'0 0.0
2018-Apr-28 16:58N 46°09' W 123°52'0 0.0
2018-Apr-28 16:27N 46°09' W 123°52'0 0.0
2018-Apr-28 15:59N 46°09' W 123°52'0 0.0
2018-Apr-28 15:23N 46°09' W 123°52'0 0.0
2018-Apr-28 14:51N 46°09' W 123°52'0 0.0
2018-Apr-28 14:30N 46°09' W 123°52'0 0.0
2018-Apr-28 13:47N 46°09' W 123°52'0 0.0
2018-Apr-28 13:29N 46°09' W 123°52'0 0.0
2018-Apr-28 12:58N 46°09' W 123°52'0 0.0
2018-Apr-28 12:24N 46°09' W 123°52'0 0.0
2018-Apr-28 12:00N 46°09' W 123°52'0 0.0
2018-Apr-28 11:26N 46°09' W 123°52'0 0.0
2018-Apr-28 10:59N 46°09' W 123°52'0 0.0
2018-Apr-28 10:29N 46°09' W 123°52'0 0.0
2018-Apr-28 09:58N 46°09' W 123°52'0 0.0
2018-Apr-28 09:28N 46°09' W 123°52'0 0.0
2018-Apr-28 08:46N 46°09' W 123°52'0 0.0
2018-Apr-28 08:23N 46°09' W 123°52'0 0.0
2018-Apr-28 07:59N 46°09' W 123°52'0 0.0
2018-Apr-28 07:29N 46°09' W 123°52'0 0.0
2018-Apr-28 06:58N 46°09' W 123°52'0 0.0
2018-Apr-28 06:10N 46°09' W 123°52'0 0.0
2018-Apr-28 05:58N 46°09' W 123°52'0 0.0
2018-Apr-28 05:27N 46°09' W 123°52'0 0.0
2018-Apr-28 04:41N 46°09' W 123°52'0 0.0
2018-Apr-28 04:29N 46°09' W 123°52'0 0.0
2018-Apr-28 03:57N 46°09' W 123°52'0 0.0
2018-Apr-28 03:11N 46°09' W 123°52'0 0.0
2018-Apr-28 02:58N 46°09' W 123°52'0 0.0
2018-Apr-28 02:00N 46°09' W 123°52'0 0.0
2018-Apr-28 01:29N 46°09' W 123°52'0 0.0
2018-Apr-28 00:59N 46°09' W 123°52'0 0.0
2018-Apr-28 00:29N 46°09' W 123°52'  
Track history (hours):
 
Tides and Currents Weather Stations Pressure Air Temp Water Temp Dewpoint Dewpoint Depression Visibility Wind Speed Wind Dir Waves Ship Positions

Maverick

Owner: Maverick, warrenton, OR. More information available from US FCC via Universal Licensing System and Coast Guard Vessel Documentation Center.

Last reported at 2018-May-07 23:58 UTC. Time now 2018-Jul-17 18:43 UTC.
Position N 48°44' W 126°14'.
Warning: this ship's position is months out of date.

Length 25 m; draft 2.3 m.

Type: Fishing. MMSI: 367384460.

Date/timePositionNaut miles runAvg speedWind from/ knotsBaromVisibWave heightAir tempDewpointWater temp
2018-May-07 23:58N 48°44' W 126°14'4 8.2
2018-May-07 23:29N 48°41' W 126°09'5 8.2
2018-May-07 22:56N 48°38' W 126°04'112 8.2
2018-May-07 09:13N 47°04' W 124°32'2 7.7
2018-May-07 08:59N 47°03' W 124°31'4 7.8
2018-May-07 08:30N 46°59' W 124°29'4 7.5
2018-May-07 08:00N 46°56' W 124°26'4 7.5
2018-May-07 07:30N 46°52' W 124°24'4 7.6
2018-May-07 06:57N 46°48' W 124°22'8 7.7
2018-May-07 05:53N 46°41' W 124°17'3 7.6
2018-May-07 05:30N 46°38' W 124°16'4 8.0
2018-May-07 04:58N 46°34' W 124°14'4 8.1
2018-May-07 04:31N 46°30' W 124°13'4 8.2
2018-May-07 04:00N 46°26' W 124°12'4 8.4
2018-May-07 03:30N 46°22' W 124°11'4 8.2
2018-May-07 03:00N 46°18' W 124°10'4 7.9
2018-May-07 02:31N 46°15' W 124°06'4 7.8
2018-May-07 02:01N 46°15' W 124°00'4 8.4
2018-May-07 01:30N 46°12' W 123°55'2 2.9
2018-May-07 00:55N 46°10' W 123°55'0 0.0
2018-May-07 00:28N 46°10' W 123°55'0 0.0
2018-May-06 23:58N 46°10' W 123°55'0 0.0
2018-May-06 23:28N 46°10' W 123°55'0 0.0
2018-May-06 22:37N 46°10' W 123°55'0 0.0
2018-May-06 22:28N 46°10' W 123°55'0 0.0
2018-May-06 21:57N 46°10' W 123°55'0 0.0
2018-May-06 21:30N 46°10' W 123°55'0 0.0
2018-May-06 20:59N 46°10' W 123°55'0 0.0
2018-May-06 20:30N 46°10' W 123°55'0 0.0
2018-May-06 19:59N 46°10' W 123°55'0 0.0
2018-May-06 19:29N 46°10' W 123°55'0 0.0
2018-May-06 18:52N 46°10' W 123°55'0 0.0
2018-May-06 18:25N 46°10' W 123°55'0 0.0
2018-May-06 17:55N 46°10' W 123°55'0 0.0
2018-May-06 17:28N 46°10' W 123°55'0 0.0
2018-May-06 17:00N 46°10' W 123°55'0 0.0
2018-May-06 16:27N 46°10' W 123°55'0 0.0
2018-May-06 15:57N 46°10' W 123°55'0 0.0
2018-May-06 15:30N 46°10' W 123°55'0 0.0
2018-May-06 14:59N 46°10' W 123°55'0 0.0
2018-May-06 14:17N 46°10' W 123°55'0 0.0
2018-May-06 13:59N 46°10' W 123°55'0 0.0
2018-May-06 13:23N 46°10' W 123°55'0 0.0
2018-May-06 12:59N 46°10' W 123°55'0 0.0
2018-May-06 12:29N 46°10' W 123°55'0 0.0
2018-May-06 11:59N 46°10' W 123°55'0 0.0
2018-May-06 11:29N 46°10' W 123°55'0 0.0
2018-May-06 10:59N 46°10' W 123°55'0 0.0
2018-May-06 10:30N 46°10' W 123°55'0 0.0
2018-May-06 09:57N 46°10' W 123°55'0 0.0
2018-May-06 09:30N 46°10' W 123°55'0 0.0
2018-May-06 08:57N 46°10' W 123°55'0 0.0
2018-May-06 08:30N 46°10' W 123°55'0 0.0
2018-May-06 07:57N 46°10' W 123°55'0 0.0
2018-May-06 07:24N 46°10' W 123°55'0 0.0
2018-May-06 07:00N 46°10' W 123°55'0 0.0
2018-May-06 06:30N 46°10' W 123°55'0 0.0
2018-May-06 05:59N 46°10' W 123°55'0 0.0
2018-May-06 05:29N 46°10' W 123°55'0 0.0
2018-May-06 04:59N 46°10' W 123°55'0 0.0
2018-May-06 04:27N 46°10' W 123°55'0 0.0
2018-May-06 03:59N 46°10' W 123°55'0 0.0
2018-May-06 03:30N 46°10' W 123°55'0 0.0
2018-May-06 02:57N 46°10' W 123°55'0 0.0
2018-May-06 02:29N 46°10' W 123°55'0 0.0
2018-May-06 01:59N 46°10' W 123°55'0 0.0
2018-May-06 01:20N 46°10' W 123°55'0 0.0
2018-May-06 00:59N 46°10' W 123°55'0 0.0
2018-May-06 00:28N 46°10' W 123°55'0 0.0
2018-May-05 23:58N 46°10' W 123°55'0 0.0
2018-May-05 23:29N 46°10' W 123°55'0 0.0
2018-May-05 22:59N 46°10' W 123°55'0 0.0
2018-May-05 22:29N 46°10' W 123°55'0 0.0
2018-May-05 21:52N 46°10' W 123°55'0 0.0
2018-May-05 21:28N 46°10' W 123°55'0 0.0
2018-May-05 20:58N 46°10' W 123°55'0 0.0
2018-May-05 20:30N 46°10' W 123°55'0 0.0
2018-May-05 19:58N 46°10' W 123°55'0 0.0
2018-May-05 19:28N 46°10' W 123°55'0 0.0
2018-May-05 18:58N 46°10' W 123°55'0 0.0
2018-May-05 18:28N 46°10' W 123°55'0 0.0
2018-May-05 17:58N 46°10' W 123°55'0 0.0
2018-May-05 17:28N 46°10' W 123°55'0 0.0
2018-May-05 16:55N 46°10' W 123°55'0 0.0
2018-May-05 16:29N 46°10' W 123°55'0 0.0
2018-May-05 15:57N 46°10' W 123°55'0 0.0
2018-May-05 15:15N 46°10' W 123°55'0 0.0
2018-May-05 14:57N 46°10' W 123°55'0 0.0
2018-May-05 14:30N 46°10' W 123°55'0 0.0
2018-May-05 14:00N 46°10' W 123°55'0 0.0
2018-May-05 13:30N 46°10' W 123°55'0 0.0
2018-May-05 12:57N 46°10' W 123°55'0 0.0
2018-May-05 12:28N 46°10' W 123°55'0 0.0
2018-May-05 11:58N 46°10' W 123°55'0 0.0
2018-May-05 11:30N 46°10' W 123°55'0 0.0
2018-May-05 11:00N 46°10' W 123°55'0 0.0
2018-May-05 10:24N 46°10' W 123°55'0 0.0
2018-May-05 09:42N 46°10' W 123°55'0 0.0
2018-May-05 09:30N 46°10' W 123°55'0 0.0
2018-May-05 09:00N 46°10' W 123°55'0 0.0
2018-May-05 08:30N 46°10' W 123°55'0 0.0
2018-May-05 08:00N 46°10' W 123°55'0 0.0
2018-May-05 07:27N 46°10' W 123°55'0 0.0
2018-May-05 07:00N 46°10' W 123°55'0 0.0
2018-May-05 06:27N 46°10' W 123°55'0 0.0
2018-May-05 05:58N 46°10' W 123°55'0 0.0
2018-May-05 05:19N 46°10' W 123°55'0 0.0
2018-May-05 04:55N 46°10' W 123°55'0 0.0
2018-May-05 04:28N 46°10' W 123°55'0 0.0
2018-May-05 03:58N 46°10' W 123°55'0 0.0
2018-May-05 03:23N 46°10' W 123°55'0 0.0
2018-May-05 02:56N 46°10' W 123°55'0 0.0
2018-May-05 02:12N 46°10' W 123°55'0 0.1
2018-May-05 01:18N 46°10' W 123°55'0 0.0
2018-May-05 00:47N 46°10' W 123°55'0 0.0
2018-May-05 00:24N 46°10' W 123°55'0 0.0
2018-May-05 00:00N 46°10' W 123°55'0 0.0
2018-May-04 23:28N 46°10' W 123°55'0 0.0
2018-May-04 22:58N 46°10' W 123°55'0 0.0
2018-May-04 22:28N 46°10' W 123°55'0 0.0
2018-May-04 21:58N 46°10' W 123°55'0 0.0
2018-May-04 21:28N 46°10' W 123°55'0 0.0
2018-May-04 20:58N 46°10' W 123°55'0 0.0
2018-May-04 20:29N 46°10' W 123°55'0 0.0
2018-May-04 19:50N 46°10' W 123°55'0 0.0
2018-May-04 19:30N 46°10' W 123°55'0 0.0
2018-May-04 19:00N 46°10' W 123°55'0 0.0
2018-May-04 18:30N 46°10' W 123°55'0 0.0
2018-May-04 17:43N 46°10' W 123°55'0 0.0
2018-May-04 17:28N 46°10' W 123°55'0 0.2
2018-May-04 17:00N 46°10' W 123°55'0 0.0
2018-May-04 16:30N 46°10' W 123°55'0 0.0
2018-May-04 16:00N 46°10' W 123°55'0 0.0
2018-May-04 15:28N 46°10' W 123°55'0 0.0
2018-May-04 14:58N 46°10' W 123°55'0 0.0
2018-May-04 14:29N 46°10' W 123°55'0 0.0
2018-May-04 14:00N 46°10' W 123°55'0 0.0
2018-May-04 13:30N 46°10' W 123°55'0 0.0
2018-May-04 12:59N 46°10' W 123°55'0 0.0
2018-May-04 12:25N 46°10' W 123°55'0 0.0
2018-May-04 12:00N 46°10' W 123°55'0 0.0
2018-May-04 11:30N 46°10' W 123°55'0 0.0
2018-May-04 10:59N 46°10' W 123°55'0 0.0
2018-May-04 10:23N 46°10' W 123°55'0 0.0
2018-May-04 09:58N 46°10' W 123°55'0 0.0
2018-May-04 09:28N 46°10' W 123°55'0 0.0
2018-May-04 08:58N 46°10' W 123°55'0 0.0
2018-May-04 08:28N 46°10' W 123°55'0 0.0
2018-May-04 07:58N 46°10' W 123°55'0 0.0
2018-May-04 07:28N 46°10' W 123°55'0 0.0
2018-May-04 06:58N 46°10' W 123°55'0 0.0
2018-May-04 06:25N 46°10' W 123°55'0 0.0
2018-May-04 06:00N 46°10' W 123°55'0 0.0
2018-May-04 05:28N 46°10' W 123°55'0 0.0
2018-May-04 05:00N 46°10' W 123°55'0 0.0
2018-May-04 04:30N 46°10' W 123°55'0 0.0
2018-May-04 04:00N 46°10' W 123°55'0 0.0
2018-May-04 03:25N 46°10' W 123°55'0 0.0
2018-May-04 02:55N 46°10' W 123°55'0 0.0
2018-May-04 02:29N 46°10' W 123°55'0 0.0
2018-May-04 01:41N 46°10' W 123°55'0 0.0
2018-May-04 01:29N 46°10' W 123°55'0 0.0
2018-May-04 00:44N 46°10' W 123°55'0 0.0
2018-May-04 00:28N 46°10' W 123°55'0 0.0
2018-May-03 23:55N 46°10' W 123°55'0 0.0
2018-May-03 23:28N 46°10' W 123°55'0 0.0
2018-May-03 22:58N 46°10' W 123°55'0 0.0
2018-May-03 22:30N 46°10' W 123°55'0 0.0
2018-May-03 21:58N 46°10' W 123°55'0 0.0
2018-May-03 21:26N 46°10' W 123°55'0 0.0
2018-May-03 21:00N 46°10' W 123°55'0 0.0
2018-May-03 20:30N 46°10' W 123°55'0 0.0
2018-May-03 19:59N 46°10' W 123°55'0 0.0
2018-May-03 19:29N 46°10' W 123°55'0 0.0
2018-May-03 18:59N 46°10' W 123°55'0 0.0
2018-May-03 18:28N 46°10' W 123°55'0 0.0
2018-May-03 17:59N 46°10' W 123°55'0 0.0
2018-May-03 17:29N 46°10' W 123°55'0 0.0
2018-May-03 16:59N 46°10' W 123°55'0 0.0
2018-May-03 16:30N 46°10' W 123°55'0 0.0
2018-May-03 15:59N 46°10' W 123°55'0 0.0
2018-May-03 15:28N 46°10' W 123°55'0 0.0
2018-May-03 14:58N 46°10' W 123°55'0 0.0
2018-May-03 14:29N 46°10' W 123°55'0 0.0
2018-May-03 14:00N 46°10' W 123°55'0 0.0
2018-May-03 13:28N 46°10' W 123°55'0 0.0
2018-May-03 12:59N 46°10' W 123°55'0 0.0
2018-May-03 11:45N 46°10' W 123°55'0 0.0
2018-May-03 11:30N 46°10' W 123°55'0 0.0
2018-May-03 10:58N 46°10' W 123°55'0 0.0
2018-May-03 10:26N 46°10' W 123°55'0 0.0
2018-May-03 09:57N 46°10' W 123°55'0 0.0
2018-May-03 09:30N 46°10' W 123°55'0 0.0
2018-May-03 08:44N 46°10' W 123°55'0 0.0
2018-May-03 08:17N 46°10' W 123°55'0 0.0
2018-May-03 07:50N 46°10' W 123°55'0 0.0
2018-May-03 07:26N 46°10' W 123°55'0 0.0
2018-May-03 06:59N 46°10' W 123°55'0 0.0
2018-May-03 06:09N 46°10' W 123°55'0 0.0
2018-May-03 06:00N 46°10' W 123°55'0 0.0
2018-May-03 05:30N 46°10' W 123°55'0 0.0
2018-May-03 04:56N 46°10' W 123°55'0 0.0
2018-May-03 04:29N 46°10' W 123°55'0 0.0
2018-May-03 03:59N 46°10' W 123°55'0 0.0
2018-May-03 03:29N 46°10' W 123°55'0 0.0
2018-May-03 02:59N 46°10' W 123°55'0 0.0
2018-May-03 02:21N 46°10' W 123°55'0 0.0
2018-May-03 02:00N 46°10' W 123°55'0 0.0
2018-May-03 01:30N 46°10' W 123°55'0 0.0
2018-May-03 00:58N 46°10' W 123°55'0 0.0
2018-May-03 00:25N 46°10' W 123°55'0 0.0
2018-May-02 23:58N 46°10' W 123°55'0 0.1
2018-May-02 23:30N 46°10' W 123°55'0 0.0
2018-May-02 22:57N 46°10' W 123°55'0 0.0
2018-May-02 22:18N 46°10' W 123°55'0 0.0
2018-May-02 21:57N 46°10' W 123°55'0 0.0
2018-May-02 21:30N 46°10' W 123°55'0 0.0
2018-May-02 20:51N 46°10' W 123°55'0 0.0
2018-May-02 20:30N 46°10' W 123°55'0 0.0
2018-May-02 20:00N 46°10' W 123°55'0 0.0
2018-May-02 19:17N 46°10' W 123°55'0 0.0
2018-May-02 18:59N 46°10' W 123°55'0 0.0
2018-May-02 18:29N 46°10' W 123°55'0 0.0
2018-May-02 17:56N 46°10' W 123°55'0 0.0
2018-May-02 17:02N 46°10' W 123°55'0 0.0
2018-May-02 16:59N 46°10' W 123°55'0 0.0
2018-May-02 16:30N 46°10' W 123°55'0 0.0
2018-May-02 16:00N 46°10' W 123°55'0 0.0
2018-May-02 15:27N 46°10' W 123°55'0 0.0
2018-May-02 15:00N 46°10' W 123°55'0 0.0
2018-May-02 14:30N 46°10' W 123°55'0 0.0
2018-May-02 13:23N 46°10' W 123°55'0 0.0
2018-May-02 12:57N 46°10' W 123°55'0 0.0
2018-May-02 12:28N 46°10' W 123°55'0 0.0
2018-May-02 11:58N 46°10' W 123°55'0 0.0
2018-May-02 11:26N 46°10' W 123°55'0 0.0
2018-May-02 10:59N 46°10' W 123°55'0 0.0
2018-May-02 10:23N 46°10' W 123°55'0 0.0
2018-May-02 09:59N 46°10' W 123°55'0 0.0
2018-May-02 09:28N 46°10' W 123°55'0 0.0
2018-May-02 08:56N 46°10' W 123°55'0 0.0
2018-May-02 08:28N 46°10' W 123°55'0 0.0
2018-May-02 08:00N 46°10' W 123°55'0 0.0
2018-May-02 07:30N 46°10' W 123°55'0 0.0
2018-May-02 06:55N 46°10' W 123°55'0 0.0
2018-May-02 06:13N 46°10' W 123°55'0 0.0
2018-May-02 05:55N 46°10' W 123°55'0 0.0
2018-May-02 05:22N 46°10' W 123°55'0 0.0
2018-May-02 04:58N 46°10' W 123°55'0 0.0
2018-May-02 04:28N 46°10' W 123°55'0 0.0
2018-May-02 03:58N 46°10' W 123°55'0 0.0
2018-May-02 03:13N 46°10' W 123°55'0 0.0
2018-May-02 02:58N 46°10' W 123°55'0 0.0
2018-May-02 02:30N 46°10' W 123°55'0 0.0
2018-May-02 01:58N 46°10' W 123°55'0 0.0
2018-May-02 01:15N 46°10' W 123°55'0 0.0
2018-May-02 01:00N 46°10' W 123°55'0 0.0
2018-May-02 00:27N 46°10' W 123°55'0 0.0
2018-May-02 00:00N 46°10' W 123°55'0 0.8
2018-May-01 23:30N 46°10' W 123°55'3 5.3
2018-May-01 22:53N 46°12' W 123°50'0 0.0
2018-May-01 22:13N 46°12' W 123°50'1 5.4
2018-May-01 22:00N 46°11' W 123°52'2 4.8
2018-May-01 21:30N 46°09' W 123°52'0 0.8
2018-May-01 21:00N 46°09' W 123°52'0 0.0
2018-May-01 20:27N 46°09' W 123°52'0 0.0
2018-May-01 19:57N 46°09' W 123°52'0 0.0
2018-May-01 19:30N 46°09' W 123°52'0 0.0
2018-May-01 18:56N 46°09' W 123°52'0 0.0
2018-May-01 17:50N 46°09' W 123°52'0 0.0
2018-May-01 17:19N 46°09' W 123°52'0 0.0
2018-May-01 16:53N 46°09' W 123°52'0 0.0
2018-May-01 16:12N 46°09' W 123°52'0 0.0
2018-May-01 16:00N 46°09' W 123°52'0 0.0
2018-May-01 15:29N 46°09' W 123°52'0 0.0
2018-May-01 14:47N 46°09' W 123°52'0 0.0
2018-May-01 14:24N 46°09' W 123°52'0 0.0
2018-May-01 14:00N 46°09' W 123°52'0 0.0
2018-May-01 13:14N 46°09' W 123°52'0 0.0
2018-May-01 13:00N 46°09' W 123°52'0 0.0
2018-May-01 12:30N 46°09' W 123°52'0 0.0
2018-May-01 12:00N 46°09' W 123°52'0 0.0
2018-May-01 11:30N 46°09' W 123°52'0 0.0
2018-May-01 11:00N 46°09' W 123°52'0 0.0
2018-May-01 10:24N 46°09' W 123°52'0 0.0
2018-May-01 09:53N 46°09' W 123°52'0 0.0
2018-May-01 09:30N 46°09' W 123°52'0 0.0
2018-May-01 08:59N 46°09' W 123°52'0 0.0
2018-May-01 08:29N 46°09' W 123°52'0 0.0
2018-May-01 07:59N 46°09' W 123°52'0 0.0
2018-May-01 07:13N 46°09' W 123°52'0 0.0
2018-May-01 06:53N 46°09' W 123°52'0 0.0
2018-May-01 06:29N 46°09' W 123°52'0 0.0
2018-May-01 05:59N 46°09' W 123°52'0 0.0
2018-May-01 05:29N 46°09' W 123°52'0 0.0
2018-May-01 04:44N 46°09' W 123°52'0 0.0
2018-May-01 04:29N 46°09' W 123°52'0 0.0
2018-May-01 03:57N 46°09' W 123°52'0 0.0
2018-May-01 03:30N 46°09' W 123°52'0 0.0
2018-May-01 03:00N 46°09' W 123°52'0 0.0
2018-May-01 02:30N 46°09' W 123°52'0 0.0
2018-May-01 02:00N 46°09' W 123°52'0 0.0
2018-May-01 01:30N 46°09' W 123°52'0 0.0
2018-May-01 01:00N 46°09' W 123°52'0 0.0
2018-May-01 00:24N 46°09' W 123°52'0 0.0
2018-Apr-30 23:52N 46°09' W 123°52'0 0.0
2018-Apr-30 23:23N 46°09' W 123°52'0 0.0
2018-Apr-30 22:59N 46°09' W 123°52'0 0.0
2018-Apr-30 22:29N 46°09' W 123°52'0 0.0
2018-Apr-30 21:59N 46°09' W 123°52'0 0.0
2018-Apr-30 21:30N 46°09' W 123°52'0 0.1
2018-Apr-30 20:45N 46°09' W 123°52'0 0.0
2018-Apr-30 20:23N 46°09' W 123°52'0 0.0
2018-Apr-30 19:56N 46°09' W 123°52'0 0.0
2018-Apr-30 19:29N 46°09' W 123°52'0 0.1
2018-Apr-30 18:59N 46°09' W 123°52'0 0.0
2018-Apr-30 18:26N 46°09' W 123°52'0 0.0
2018-Apr-30 17:59N 46°09' W 123°52'0 0.0
2018-Apr-30 17:29N 46°09' W 123°52'0 0.0
2018-Apr-30 16:27N 46°09' W 123°52'0 0.0
2018-Apr-30 16:00N 46°09' W 123°52'0 0.0
2018-Apr-30 14:49N 46°09' W 123°52'0 0.0
2018-Apr-30 14:30N 46°09' W 123°52'0 0.0
2018-Apr-30 13:57N 46°09' W 123°52'0 0.0
2018-Apr-30 13:30N 46°09' W 123°52'0 0.0
2018-Apr-30 13:00N 46°09' W 123°52'0 0.0
2018-Apr-30 12:30N 46°09' W 123°52'0 0.0
2018-Apr-30 11:54N 46°09' W 123°52'0 0.0
2018-Apr-30 11:28N 46°09' W 123°52'0 0.0
2018-Apr-30 10:55N 46°09' W 123°52'0 0.0
2018-Apr-30 10:22N 46°09' W 123°52'0 0.0
2018-Apr-30 09:58N 46°09' W 123°52'0 0.0
2018-Apr-30 09:28N 46°09' W 123°52'0 0.0
2018-Apr-30 08:54N 46°09' W 123°52'0 0.0
2018-Apr-30 08:30N 46°09' W 123°52'0 0.0
2018-Apr-30 08:00N 46°09' W 123°52'0 0.0
2018-Apr-30 07:30N 46°09' W 123°52'0 0.0
2018-Apr-30 06:51N 46°09' W 123°52'0 0.0
2018-Apr-30 06:28N 46°09' W 123°52'0 0.0
2018-Apr-30 05:58N 46°09' W 123°52'0 0.0
2018-Apr-30 05:28N 46°09' W 123°52'0 0.0
2018-Apr-30 04:58N 46°09' W 123°52'0 0.0
2018-Apr-30 04:25N 46°09' W 123°52'0 0.0
2018-Apr-30 03:58N 46°09' W 123°52'0 0.0
2018-Apr-30 03:28N 46°09' W 123°52'0 0.0
2018-Apr-30 02:57N 46°09' W 123°52'0 0.0
2018-Apr-30 02:29N 46°09' W 123°52'0 0.0
2018-Apr-30 01:59N 46°09' W 123°52'0 0.0
2018-Apr-30 01:20N 46°09' W 123°52'0 0.0
2018-Apr-30 00:58N 46°09' W 123°52'0 0.0
2018-Apr-30 00:30N 46°09' W 123°52'0 0.0
2018-Apr-30 00:00N 46°09' W 123°52'0 0.0
2018-Apr-29 23:30N 46°09' W 123°52'0 0.0
2018-Apr-29 22:55N 46°09' W 123°52'0 0.0
2018-Apr-29 22:28N 46°09' W 123°52'0 0.0
2018-Apr-29 21:59N 46°09' W 123°52'0 0.0
2018-Apr-29 21:28N 46°09' W 123°52'0 0.0
2018-Apr-29 21:00N 46°09' W 123°52'0 0.0
2018-Apr-29 20:14N 46°09' W 123°52'0 0.0
2018-Apr-29 19:59N 46°09' W 123°52'0 0.0
2018-Apr-29 19:26N 46°09' W 123°52'0 0.0
2018-Apr-29 18:44N 46°09' W 123°52'0 0.0
2018-Apr-29 18:29N 46°09' W 123°52'0 0.0
2018-Apr-29 17:59N 46°09' W 123°52'0 0.0
2018-Apr-29 17:29N 46°09' W 123°52'0 0.0
2018-Apr-29 16:59N 46°09' W 123°52'0 0.0
2018-Apr-29 16:29N 46°09' W 123°52'0 0.0
2018-Apr-29 16:00N 46°09' W 123°52'0 0.0
2018-Apr-29 15:30N 46°09' W 123°52'0 0.0
2018-Apr-29 14:56N 46°09' W 123°52'0 0.0
2018-Apr-29 14:29N 46°09' W 123°52'0 0.0
2018-Apr-29 13:43N 46°09' W 123°52'0 0.0
2018-Apr-29 13:25N 46°09' W 123°52'0 0.0
2018-Apr-29 13:00N 46°09' W 123°52'0 0.0
2018-Apr-29 12:24N 46°09' W 123°52'0 0.0
2018-Apr-29 12:00N 46°09' W 123°52'0 0.0
2018-Apr-29 11:25N 46°09' W 123°52'0 0.0
2018-Apr-29 10:58N 46°09' W 123°52'0 0.0
2018-Apr-29 10:18N 46°09' W 123°52'0 0.0
2018-Apr-29 09:55N 46°09' W 123°52'0 0.0
2018-Apr-29 09:28N 46°09' W 123°52'0 0.0
2018-Apr-29 08:55N 46°09' W 123°52'0 0.0
2018-Apr-29 08:26N 46°09' W 123°52'0 0.0
2018-Apr-29 07:59N 46°09' W 123°52'0 0.0
2018-Apr-29 07:29N 46°09' W 123°52'0 0.0
2018-Apr-29 07:00N 46°09' W 123°52'0 0.0
2018-Apr-29 06:30N 46°09' W 123°52'0 0.0
2018-Apr-29 06:00N 46°09' W 123°52'0 0.0
2018-Apr-29 05:29N 46°09' W 123°52'0 0.0
2018-Apr-29 04:59N 46°09' W 123°52'0 0.0
2018-Apr-29 04:16N 46°09' W 123°52'0 0.0
2018-Apr-29 04:00N 46°09' W 123°52'0 0.0
2018-Apr-29 03:30N 46°09' W 123°52'0 0.0
2018-Apr-29 02:53N 46°09' W 123°52'0 0.0
2018-Apr-29 02:29N 46°09' W 123°52'0 0.0
2018-Apr-29 01:53N 46°09' W 123°52'0 0.0
2018-Apr-29 01:29N 46°09' W 123°52'0 0.0
2018-Apr-29 00:59N 46°09' W 123°52'0 0.0
2018-Apr-29 00:30N 46°09' W 123°52'0 0.0
2018-Apr-28 23:34N 46°09' W 123°52'0 0.0
2018-Apr-28 23:24N 46°09' W 123°52'0 0.0
2018-Apr-28 22:55N 46°09' W 123°52'0 0.0
2018-Apr-28 22:30N 46°09' W 123°52'0 0.0
2018-Apr-28 22:00N 46°09' W 123°52'0 0.0
2018-Apr-28 21:28N 46°09' W 123°52'0 0.0
2018-Apr-28 20:58N 46°09' W 123°52'0 0.0
2018-Apr-28 20:29N 46°09' W 123°52'0 0.0
2018-Apr-28 19:59N 46°09' W 123°52'0 0.0
2018-Apr-28 19:29N 46°09' W 123°52'0 0.0
2018-Apr-28 18:53N 46°09' W 123°52'0 0.0
2018-Apr-28 18:20N 46°09' W 123°52'0 0.0
2018-Apr-28 17:56N 46°09' W 123°52'0 0.0
2018-Apr-28 16:58N 46°09' W 123°52'0 0.0
2018-Apr-28 16:27N 46°09' W 123°52'0 0.0
2018-Apr-28 15:59N 46°09' W 123°52'0 0.0
2018-Apr-28 15:23N 46°09' W 123°52'0 0.0
2018-Apr-28 14:51N 46°09' W 123°52'0 0.0
2018-Apr-28 14:30N 46°09' W 123°52'0 0.0
2018-Apr-28 13:47N 46°09' W 123°52'0 0.0
2018-Apr-28 13:29N 46°09' W 123°52'0 0.0
2018-Apr-28 12:58N 46°09' W 123°52'0 0.0
2018-Apr-28 12:24N 46°09' W 123°52'0 0.0
2018-Apr-28 12:00N 46°09' W 123°52'0 0.0
2018-Apr-28 11:26N 46°09' W 123°52'0 0.0
2018-Apr-28 10:59N 46°09' W 123°52'0 0.0
2018-Apr-28 10:29N 46°09' W 123°52'0 0.0
2018-Apr-28 09:58N 46°09' W 123°52'0 0.0
2018-Apr-28 09:28N 46°09' W 123°52'0 0.0
2018-Apr-28 08:46N 46°09' W 123°52'0 0.0
2018-Apr-28 08:23N 46°09' W 123°52'0 0.0
2018-Apr-28 07:59N 46°09' W 123°52'0 0.0
2018-Apr-28 07:29N 46°09' W 123°52'0 0.0
2018-Apr-28 06:58N 46°09' W 123°52'0 0.0
2018-Apr-28 06:10N 46°09' W 123°52'0 0.0
2018-Apr-28 05:58N 46°09' W 123°52'0 0.0
2018-Apr-28 05:27N 46°09' W 123°52'0 0.0
2018-Apr-28 04:41N 46°09' W 123°52'0 0.0
2018-Apr-28 04:29N 46°09' W 123°52'0 0.0
2018-Apr-28 03:57N 46°09' W 123°52'0 0.0
2018-Apr-28 03:11N 46°09' W 123°52'0 0.0
2018-Apr-28 02:58N 46°09' W 123°52'0 0.0
2018-Apr-28 02:00N 46°09' W 123°52'0 0.0
2018-Apr-28 01:29N 46°09' W 123°52'0 0.0
2018-Apr-28 00:59N 46°09' W 123°52'0 0.0
2018-Apr-28 00:29N 46°09' W 123°52'  

Dump ship's entire track history